Главная страница
METAR-TAF:

METAR-TAF

Аэропорты :

Ларнака, Кипр

широта: 34-53N, долгота: 033-38E, высота над уровнем моря: 2 м

Текущие метеонаблюдения

Эта сводка был подготовлена 29 минут назад, в 01:00 UTC
Ветер 6 Узел от западный
Температура 23°C
Влажность 73%
Давление 1009 hPa
Видимость 10 км и более
Нет облачности ниже 1500 м, и нет кучево-дождевой облачности

METAR: LCLK 240100Z 28006KT CAVOK 23/18 Q1009 NOSIG

Время: 04:29 (01:29 UTC)

Прогноз

Эта сводка был подготовлена 1 час и 59 минут назад, в 23:30 UTC
Прогноз действительный с 24-го 00 UTC до 24-го 24 UTC
Ветер 8 Узел от северо-западный
Видимость 10 км и более
небольшая облачность на высоте 2000 фута
изменения
С 24-го 08 UTC до 24-го 11 UTC
Ветер 20 Узел от юго-западный
изменения
С 24-го 16 UTC до 24-го 20 UTC
Ветер 8 Узел от северо-западный

TAF: LCLK 232330Z 2400/2424 32008KT 9999 FEW020 BECMG 2408/2411 22020KT BECMG 2416/2420 32008KT

Метеонаблюдения и прогнозы для более 4000 аэропортов (сводки METAR и TAF).

Имеющиеся станции представлены на карте желтыми и красными точками.

Чтобы увидеть название станции, наведите на нее мышь.

Затем щелкните, чтобы увидеть метеонаблюдения и метеопрогнозы.

Управление картой: чтобы увеличить масштаб, щелкните зеленые кнопки с черным крестиком; чтобы уменьшить масштаб, щелкните зеленую кнопку с тире; для просмотра соседних карт щелкайте зеленые стрелки.


METAR-TAF: